Terminal Aerodrome Forecast
Issued by NWS Sterling, VA

Current Version | Previous Version | Graphics & Text | Print | Product List | Glossary On
Versions: 1 2 3 4 5 6 7 8 9 10 11 12 13 14 15 16 17 18 19 20 21 22 23 24 25 26 27 28 29 30
483
FTUS41 KLWX 181720
TAFIAD
TAF
KIAD 181720Z 1818/1924 20008KT P6SM SCT045 BKN110
     FM181900 21008KT P6SM VCTS SCT045CB BKN110
      TEMPO 1819/1822 VRB20G35KT 1SM +TSRA BKN035CB
     FM190000 27005KT P6SM SCT060 BKN090
     FM191200 31005KT P6SM FEW250
     FM192300 25005KT P6SM FEW070 SCT250=

USA.gov is the U.S. government's official web portal to all federal, state and local government web resources and services.